Time;durP1;ratioP1;P1;durP2;ratioP2;P2;SDS_P1;SDS_P2;PMS_P1;PMS_P2;Temp;Humidity;BMP_temperature;BMP_pressure;BME280_temperature;BME280_humidity;BME280_pressure;Samples;Min_cycle;Max_cycle;Signal;HPM_P1;HPM_P2
2022/09/11 00:01:54;;;;;;;26.92;22.30;;;13.80;99.90;;;;;;5089902;28;20122;-66
2022/09/11 00:04:20;;;;;;;26.00;20.52;;;13.80;99.90;;;;;;5101364;28;20043;-65
2022/09/11 00:06:45;;;;;;;26.05;20.17;;;13.80;99.90;;;;;;5101717;28;20058;-66
2022/09/11 00:09:11;;;;;;;25.65;20.33;;;13.80;99.90;;;;;;5120282;28;20389;-68
2022/09/11 00:11:39;;;;;;;22.38;18.13;;;13.80;99.90;;;;;;5108412;28;20036;-65
2022/09/11 00:14:05;;;;;;;24.25;20.92;;;13.80;99.90;;;;;;5099352;28;20178;-67
2022/09/11 00:16:37;;;;;;;30.33;22.80;;;13.80;99.90;;;;;;5112796;28;20044;-66
2022/09/11 00:19:08;;;;;;;;;;;13.80;99.90;;;;;;5108805;28;20043;-64
2022/09/11 00:21:35;;;;;;;28.67;22.38;;;13.80;99.90;;;;;;5105508;28;19920;-65
2022/09/11 00:24:01;;;;;;;29.33;23.45;;;13.80;99.90;;;;;;5101923;28;20499;-66
2022/09/11 00:26:27;;;;;;;25.65;20.85;;;13.80;99.90;;;;;;5104709;28;20036;-66
2022/09/11 00:28:54;;;;;;;26.50;21.77;;;13.80;99.90;;;;;;5103735;28;20114;-66
2022/09/11 00:31:23;;;;;;;30.55;24.10;;;13.70;99.90;;;;;;5101835;28;20118;-67
2022/09/11 00:33:48;;;;;;;27.42;22.13;;;13.70;99.90;;;;;;5087507;28;20054;-66
2022/09/11 00:36:20;;;;;;;29.45;23.45;;;13.70;99.90;;;;;;5104961;28;20040;-69
2022/09/11 00:38:46;;;;;;;25.23;19.92;;;13.70;99.90;;;;;;5090569;28;20035;-67
2022/09/11 00:41:25;;;;;;;26.40;21.27;;;13.70;99.90;;;;;;5106981;28;20400;-66
2022/09/11 00:43:50;;;;;;;25.05;19.73;;;13.70;99.90;;;;;;5106272;28;20050;-66
2022/09/11 00:46:16;;;;;;;21.98;18.23;;;13.70;99.90;;;;;;5088237;28;20031;-65
2022/09/11 00:48:48;;;;;;;21.25;17.85;;;13.60;99.90;;;;;;5108331;28;20051;-67
2022/09/11 00:51:18;;;;;;;20.73;17.52;;;13.60;99.90;;;;;;5091568;28;20551;-65
2022/09/11 00:53:45;;;;;;;15.30;13.70;;;13.60;99.90;;;;;;5106682;28;20061;-65
2022/09/11 00:56:12;;;;;;;11.77;9.95;;;13.50;99.90;;;;;;5104967;28;20116;-65
2022/09/11 00:58:43;;;;;;;12.32;8.73;;;13.50;99.90;;;;;;5109275;28;20045;-67
2022/09/11 01:01:09;;;;;;;8.80;7.82;;;13.50;99.90;;;;;;5131519;27;20401;-65
2022/09/11 01:03:35;;;;;;;8.57;7.68;;;13.40;99.90;;;;;;5106643;28;20444;-66
2022/09/11 01:06:01;;;;;;;9.13;7.10;;;13.40;99.90;;;;;;5120939;27;20130;-64
2022/09/11 01:08:27;;;;;;;7.88;7.07;;;13.30;99.90;;;;;;5102544;28;20383;-67
2022/09/11 01:11:18;;;;;;;9.65;8.65;;;13.30;99.90;;;;;;5105606;28;20054;-65
2022/09/11 01:14:06;;;;;;;8.45;7.55;;;13.30;99.90;;;;;;5103926;28;20050;-66
2022/09/11 01:16:48;;;;;;;8.70;7.90;;;13.20;99.90;;;;;;5105018;27;20057;-67
2022/09/11 01:19:13;;;;;;;8.80;7.90;;;13.20;99.90;;;;;;5109917;28;20043;-66
2022/09/11 01:22:04;;;;;;;8.65;7.75;;;13.20;99.90;;;;;;5113453;27;20096;-66
2022/09/11 01:24:48;;;;;;;9.48;8.48;;;13.20;99.90;;;;;;5091042;28;20039;-65
2022/09/11 01:27:52;;;;;;;10.77;9.65;;;13.10;99.90;;;;;;5121709;27;20036;-67
2022/09/11 01:30:20;;;;;;;12.32;10.85;;;13.20;99.90;;;;;;5108431;28;20077;-66
2022/09/11 01:33:13;;;;;;;15.18;12.80;;;13.10;99.90;;;;;;5117143;27;20044;-66
2022/09/11 01:36:05;;;;;;;18.42;13.63;;;13.10;99.90;;;;;;5108592;27;20039;-65
2022/09/11 01:38:30;;;;;;;17.83;14.05;;;13.10;99.90;;;;;;5107966;27;20430;-65
2022/09/11 01:41:07;;;;;;;17.85;14.90;;;13.10;99.90;;;;;;5112347;27;20104;-66
2022/09/11 01:43:39;;;;;;;19.23;15.02;;;13.10;99.90;;;;;;5110938;27;20036;-64
2022/09/11 01:46:06;;;;;;;19.88;15.15;;;13.10;99.90;;;;;;5109504;27;20044;-67
2022/09/11 01:48:45;;;;;;;19.27;15.68;;;13.10;99.90;;;;;;5107273;27;20055;-66
2022/09/11 01:51:26;;;;;;;23.67;16.42;;;13.10;99.90;;;;;;5112527;27;20126;-64
2022/09/11 01:53:53;;;;;;;22.20;16.27;;;13.10;99.90;;;;;;5113028;27;20486;-67
2022/09/11 01:56:35;;;;;;;25.73;18.50;;;13.10;99.90;;;;;;5108624;28;20038;-67
2022/09/11 01:59:05;;;;;;;25.58;17.90;;;13.00;99.90;;;;;;5107034;28;20042;-66
2022/09/11 02:01:37;;;;;;;22.92;17.55;;;13.10;99.90;;;;;;5107805;28;20051;-66
2022/09/11 02:04:10;;;;;;;23.20;16.25;;;13.10;99.90;;;;;;5107539;28;20397;-65
2022/09/11 02:06:45;;;;;;;38.33;17.88;;;13.10;99.90;;;;;;5113964;27;20107;-67
2022/09/11 02:09:15;;;;;;;17.60;15.30;;;13.00;99.90;;;;;;5121861;27;20379;-66
2022/09/11 02:11:42;;;;;;;22.48;15.95;;;13.00;99.90;;;;;;5109491;27;20386;-66
2022/09/11 02:14:20;;;;;;;19.52;15.38;;;13.00;99.90;;;;;;5109291;27;20458;-66
2022/09/11 02:16:52;;;;;;;12.13;8.25;;;13.00;99.90;;;;;;5100442;28;20054;-67
2022/09/11 02:19:30;;;;;;;12.43;6.80;;;13.00;99.90;;;;;;5108981;27;20035;-65
2022/09/11 02:21:57;;;;;;;9.50;6.70;;;12.90;99.90;;;;;;5101449;28;20097;-66
2022/09/11 02:24:23;;;;;;;10.88;7.88;;;12.90;99.90;;;;;;5103401;27;20042;-67
2022/09/11 02:26:53;;;;;;;19.17;13.35;;;12.80;99.90;;;;;;5106804;28;20047;-65
2022/09/11 02:29:19;;;;;;;24.05;15.77;;;12.80;99.90;;;;;;5107506;28;20044;-65
2022/09/11 02:31:46;;;;;;;29.15;19.77;;;12.80;99.90;;;;;;5105620;28;20104;-65
2022/09/11 02:34:13;;;;;;;31.35;20.48;;;12.80;99.90;;;;;;5108341;28;20051;-65
2022/09/11 02:37:05;;;;;;;32.45;19.23;;;12.80;99.90;;;;;;5115345;27;20489;-64
2022/09/11 02:39:54;;;;;;;32.88;18.75;;;12.80;99.90;;;;;;5101533;28;20043;-65
2022/09/11 02:42:57;;;;;;;126.53;19.83;;;12.80;99.90;;;;;;5100820;28;20500;-66
2022/09/11 02:45:30;;;;;;;42.03;12.35;;;12.70;99.90;;;;;;5091877;28;20042;-65
2022/09/11 02:48:20;;;;;;;43.83;13.65;;;12.70;99.90;;;;;;5110542;27;20079;-65
2022/09/11 02:51:02;;;;;;;31.95;15.77;;;12.70;99.90;;;;;;5105028;28;20056;-66
2022/09/11 02:53:41;;;;;;;16.50;13.77;;;12.70;99.90;;;;;;5099454;28;20100;-68
2022/09/11 02:56:29;;;;;;;16.17;13.80;;;12.70;99.90;;;;;;5110766;28;20027;-64
2022/09/11 02:59:00;;;;;;;16.80;13.57;;;12.60;99.90;;;;;;5104400;28;20504;-65
2022/09/11 03:01:26;;;;;;;18.42;14.43;;;12.60;99.90;;;;;;5088426;28;20409;-65
2022/09/11 03:03:52;;;;;;;20.88;14.60;;;12.60;99.90;;;;;;5103883;28;20054;-66
2022/09/11 03:06:21;;;;;;;199.15;18.23;;;12.60;99.90;;;;;;5111800;27;20038;-65
2022/09/11 03:08:47;;;;;;;66.47;18.27;;;12.60;99.90;;;;;;5102636;28;20043;-65
2022/09/11 03:11:16;;;;;;;37.63;14.10;;;12.60;99.90;;;;;;5109293;28;20487;-67
2022/09/11 03:13:43;;;;;;;34.38;14.95;;;12.50;99.90;;;;;;5101653;28;20043;-67
2022/09/11 03:16:11;;;;;;;29.15;13.35;;;12.50;99.90;;;;;;5103737;28;20082;-68
2022/09/11 03:18:37;;;;;;;36.53;13.18;;;12.50;99.90;;;;;;5096834;28;20043;-66
2022/09/11 03:21:03;;;;;;;40.42;14.05;;;12.50;99.90;;;;;;5105178;28;20114;-66
2022/09/11 03:23:29;;;;;;;21.20;14.13;;;12.40;99.90;;;;;;5101116;28;20044;-66
2022/09/11 03:25:55;;;;;;;28.75;14.15;;;12.30;99.90;;;;;;5106194;28;20051;-65
2022/09/11 03:28:21;;;;;;;16.42;12.32;;;12.30;99.90;;;;;;5107821;27;20034;-66
2022/09/11 03:30:48;;;;;;;26.75;12.18;;;12.30;99.90;;;;;;5099222;28;20135;-67
2022/09/11 03:33:16;;;;;;;18.88;11.70;;;12.30;99.90;;;;;;5107430;28;20460;-66
2022/09/11 03:35:43;;;;;;;14.88;10.15;;;12.40;99.90;;;;;;5106920;28;20482;-65
2022/09/11 03:38:08;;;;;;;11.13;9.85;;;12.30;99.90;;;;;;5106291;28;20051;-64
2022/09/11 03:40:34;;;;;;;11.75;10.30;;;12.30;99.90;;;;;;5094819;28;20043;-67
2022/09/11 03:43:00;;;;;;;14.05;11.88;;;12.30;99.90;;;;;;5101782;28;20053;-65
2022/09/11 03:45:26;;;;;;;13.00;11.75;;;12.30;99.90;;;;;;5106412;28;20120;-67
2022/09/11 03:47:52;;;;;;;13.43;11.77;;;12.30;99.90;;;;;;5094841;28;20049;-66
2022/09/11 03:50:19;;;;;;;12.77;11.57;;;12.30;99.90;;;;;;5106591;28;20075;-67
2022/09/11 03:52:45;;;;;;;12.43;11.25;;;12.30;99.90;;;;;;5107915;28;20140;-65
2022/09/11 03:55:11;;;;;;;13.60;12.20;;;12.30;99.90;;;;;;5101502;28;20047;-67
2022/09/11 03:57:38;;;;;;;11.52;10.30;;;12.30;99.90;;;;;;5115063;27;20054;-65
2022/09/11 04:00:05;;;;;;;34.00;11.13;;;12.20;99.90;;;;;;5114903;28;20048;-64
2022/09/11 04:02:31;;;;;;;29.85;9.63;;;12.20;99.90;;;;;;5113667;28;20040;-67
2022/09/11 04:04:56;;;;;;;11.68;8.88;;;12.10;99.90;;;;;;5105384;28;20393;-65
2022/09/11 04:07:23;;;;;;;10.40;9.13;;;12.10;99.90;;;;;;5103991;28;20118;-65
2022/09/11 04:09:48;;;;;;;10.52;9.48;;;12.00;99.90;;;;;;5104478;28;20035;-66
2022/09/11 04:12:15;;;;;;;15.70;10.13;;;12.00;99.90;;;;;;5111155;28;20413;-68
2022/09/11 04:14:41;;;;;;;27.27;10.00;;;12.00;99.90;;;;;;5117048;28;20040;-65
2022/09/11 04:17:07;;;;;;;28.40;10.10;;;12.00;99.90;;;;;;5106481;28;20543;-66
2022/09/11 04:19:33;;;;;;;63.53;9.55;;;12.00;99.90;;;;;;5115016;28;20474;-67
2022/09/11 04:21:59;;;;;;;16.98;8.60;;;12.00;99.90;;;;;;5106227;28;20046;-66
2022/09/11 04:24:24;;;;;;;35.08;8.60;;;12.00;99.90;;;;;;5108788;28;20031;-65
2022/09/11 04:26:50;;;;;;;23.20;8.70;;;11.90;99.90;;;;;;5109508;28;20648;-67
2022/09/11 04:29:21;;;;;;;10.45;9.20;;;11.90;99.90;;;;;;5106577;28;20132;-66
2022/09/11 04:31:47;;;;;;;10.55;8.75;;;11.80;99.90;;;;;;5107494;28;20050;-65
2022/09/11 04:34:12;;;;;;;11.00;9.43;;;11.80;99.90;;;;;;5107107;28;20035;-67
2022/09/11 04:36:38;;;;;;;13.65;10.27;;;11.90;99.90;;;;;;5121743;27;21893;-65
2022/09/11 04:39:04;;;;;;;25.17;11.63;;;11.80;99.90;;;;;;5115569;27;20035;-66
2022/09/11 04:41:29;;;;;;;13.43;12.00;;;11.80;99.90;;;;;;5111758;27;20060;-67
2022/09/11 04:43:57;;;;;;;13.77;11.73;;;11.70;99.90;;;;;;5107941;28;20562;-65
2022/09/11 04:46:23;;;;;;;12.88;11.13;;;11.70;99.90;;;;;;5121604;27;21203;-66
2022/09/11 04:48:51;;;;;;;12.95;11.18;;;11.70;99.90;;;;;;5127112;27;20486;-67
2022/09/11 04:51:29;;;;;;;10.98;9.23;;;11.70;99.90;;;;;;5109736;28;20054;-65
2022/09/11 04:53:56;;;;;;;11.25;9.70;;;11.80;99.90;;;;;;5108931;27;20118;-64
2022/09/11 04:56:28;;;;;;;12.55;9.38;;;11.80;99.90;;;;;;5107238;27;20090;-65
2022/09/11 04:58:59;;;;;;;9.33;8.43;;;11.80;99.90;;;;;;5117034;27;20512;-67
2022/09/11 05:01:27;;;;;;;9.57;8.68;;;11.70;99.90;;;;;;5109312;27;20398;-64
2022/09/11 05:03:55;;;;;;;13.30;10.35;;;11.70;99.90;;;;;;5101989;28;20043;-66
2022/09/11 05:06:21;;;;;;;10.05;9.00;;;11.70;99.90;;;;;;5116227;27;20101;-65
2022/09/11 05:08:48;;;;;;;10.20;9.20;;;11.70;99.90;;;;;;5110213;28;20039;-65
2022/09/11 05:11:19;;;;;;;44.60;20.38;;;11.70;99.90;;;;;;5109614;28;20047;-65
2022/09/11 05:13:46;;;;;;;13.65;10.20;;;11.70;99.90;;;;;;5108791;28;20482;-64
2022/09/11 05:16:14;;;;;;;10.50;9.50;;;11.70;99.90;;;;;;5102938;28;20039;-66
2022/09/11 05:18:42;;;;;;;17.92;12.40;;;11.70;99.90;;;;;;5107878;28;20064;-66
2022/09/11 05:21:13;;;;;;;16.15;12.57;;;11.70;99.90;;;;;;5107033;28;20039;-67
2022/09/11 05:23:39;;;;;;;11.68;10.43;;;11.60;99.90;;;;;;5106775;28;20486;-67
2022/09/11 05:26:06;;;;;;;10.32;9.30;;;11.60;99.90;;;;;;5109831;27;21509;-66
2022/09/11 05:28:32;;;;;;;17.95;10.80;;;11.70;99.90;;;;;;5107224;28;20493;-67
2022/09/11 05:30:58;;;;;;;29.58;11.23;;;11.60;99.90;;;;;;5109687;27;20395;-66
2022/09/11 05:33:26;;;;;;;41.90;16.40;;;11.70;99.90;;;;;;5104244;28;20566;-68
2022/09/11 05:36:01;;;;;;;16.67;11.88;;;11.70;99.90;;;;;;5107028;28;20039;-66
2022/09/11 05:38:28;;;;;;;9.27;8.38;;;11.60;99.90;;;;;;5100120;28;20043;-66
2022/09/11 05:40:54;;;;;;;9.75;8.85;;;11.70;99.90;;;;;;5114355;27;20082;-65
2022/09/11 05:43:20;;;;;;;10.38;9.38;;;11.70;99.90;;;;;;5105773;28;20051;-66
2022/09/11 05:45:55;;;;;;;12.32;9.93;;;11.70;99.90;;;;;;5108731;28;20032;-65
2022/09/11 05:48:21;;;;;;;9.75;8.85;;;11.70;99.90;;;;;;5105825;28;20398;-66
2022/09/11 05:50:58;;;;;;;10.55;9.55;;;11.70;99.90;;;;;;5132073;27;20039;-63
2022/09/11 05:53:25;;;;;;;11.10;10.00;;;11.80;99.90;;;;;;5120255;27;20159;-64
2022/09/11 05:55:50;;;;;;;10.77;9.77;;;11.80;99.90;;;;;;5111486;28;20036;-65
2022/09/11 05:58:17;;;;;;;15.18;9.95;;;11.80;99.90;;;;;;5109930;27;20051;-64
2022/09/11 06:00:47;;;;;;;30.27;8.90;;;11.80;99.90;;;;;;5105967;28;20039;-64
2022/09/11 06:03:17;;;;;;;34.58;9.85;;;11.80;99.90;;;;;;5110863;28;20048;-63
2022/09/11 06:05:43;;;;;;;43.42;9.75;;;11.80;99.90;;;;;;5103042;28;20497;-64
2022/09/11 06:08:10;;;;;;;68.93;9.63;;;11.80;99.90;;;;;;5107509;28;20044;-64
2022/09/11 06:10:36;;;;;;;44.65;8.88;;;11.80;99.90;;;;;;5111006;27;20383;-63
2022/09/11 06:13:02;;;;;;;14.55;8.20;;;11.80;99.90;;;;;;5101367;28;20414;-64
2022/09/11 06:15:28;;;;;;;9.55;8.60;;;11.80;99.90;;;;;;5104616;28;20024;-64
2022/09/11 06:17:54;;;;;;;9.40;8.60;;;11.90;99.90;;;;;;5101044;28;20123;-63
2022/09/11 06:20:20;;;;;;;60.75;9.48;;;12.00;99.90;;;;;;5118958;27;20106;-63
2022/09/11 06:22:46;;;;;;;22.58;9.63;;;12.00;99.90;;;;;;5123748;27;20768;-65
2022/09/11 06:25:12;;;;;;;8.75;8.00;;;12.00;99.90;;;;;;5101373;27;20407;-64
2022/09/11 06:27:37;;;;;;;12.00;9.55;;;12.10;99.90;;;;;;5102625;28;20027;-64
2022/09/11 06:30:03;;;;;;;20.00;9.55;;;12.20;99.90;;;;;;5103561;28;20044;-65
2022/09/11 06:32:29;;;;;;;8.70;8.00;;;12.30;99.90;;;;;;5110976;27;20055;-66
2022/09/11 06:34:55;;;;;;;9.07;8.18;;;12.40;99.90;;;;;;5119260;27;20047;-64
2022/09/11 06:37:20;;;;;;;33.25;9.65;;;12.60;99.90;;;;;;5114069;27;20521;-65
2022/09/11 06:39:46;;;;;;;14.13;8.60;;;12.60;99.90;;;;;;5099216;28;20055;-65
2022/09/11 06:42:11;;;;;;;15.38;9.50;;;12.70;99.90;;;;;;5103447;28;20118;-64
2022/09/11 06:44:37;;;;;;;8.90;8.20;;;12.80;99.90;;;;;;5105297;28;20480;-63
2022/09/11 06:47:03;;;;;;;10.52;9.52;;;13.00;99.90;;;;;;5106556;27;20051;-63
2022/09/11 06:49:29;;;;;;;16.13;9.88;;;13.10;99.90;;;;;;5110957;27;20531;-64
2022/09/11 06:51:54;;;;;;;20.17;9.88;;;13.20;99.90;;;;;;5120236;27;20050;-62
2022/09/11 06:54:20;;;;;;;9.13;8.35;;;13.30;99.90;;;;;;5107583;28;20818;-64
2022/09/11 06:56:46;;;;;;;10.20;9.40;;;13.40;99.90;;;;;;5110284;28;20041;-64
2022/09/11 06:59:13;;;;;;;10.60;9.60;;;13.60;99.90;;;;;;5104163;27;20126;-65
2022/09/11 07:01:39;;;;;;;9.75;8.95;;;13.80;99.90;;;;;;5108107;28;20044;-64
2022/09/11 07:04:04;;;;;;;12.32;10.77;;;13.90;99.90;;;;;;5128359;27;20042;-64
2022/09/11 07:06:30;;;;;;;12.45;11.25;;;14.10;99.90;;;;;;5114044;27;20070;-63
2022/09/11 07:09:01;;;;;;;11.88;10.80;;;14.20;99.90;;;;;;5096858;28;20385;-65
2022/09/11 07:11:31;;;;;;;13.23;11.93;;;14.20;99.90;;;;;;5108617;27;20051;-64
2022/09/11 07:13:57;;;;;;;11.77;10.77;;;14.40;99.90;;;;;;5128689;27;20086;-63
2022/09/11 07:16:23;;;;;;;12.10;11.00;;;14.50;99.90;;;;;;5112210;27;20085;-63
2022/09/11 07:18:48;;;;;;;12.82;11.52;;;14.60;99.90;;;;;;5108425;28;20039;-65
2022/09/11 07:21:20;;;;;;;14.23;12.93;;;14.70;99.90;;;;;;5125916;27;20112;-63
2022/09/11 07:23:50;;;;;;;14.60;13.10;;;14.90;99.90;;;;;;5117368;27;20047;-64
2022/09/11 07:26:17;;;;;;;13.73;12.40;;;15.10;99.90;;;;;;5125137;27;20557;-64
2022/09/11 07:28:43;;;;;;;13.93;12.60;;;15.20;99.90;;;;;;5109388;28;20109;-64
2022/09/11 07:31:17;;;;;;;14.30;12.90;;;15.40;99.90;;;;;;5107375;28;20047;-65
2022/09/11 07:33:45;;;;;;;13.65;12.35;;;15.60;99.90;;;;;;5109767;27;20858;-65
2022/09/11 07:36:12;;;;;;;15.65;11.77;;;15.80;99.90;;;;;;5109228;27;20085;-64
2022/09/11 07:38:45;;;;;;;13.63;12.32;;;16.00;99.90;;;;;;5106518;28;20075;-65
2022/09/11 07:41:12;;;;;;;15.73;12.98;;;16.20;99.90;;;;;;5106928;28;20047;-64
2022/09/11 07:43:40;;;;;;;13.20;11.82;;;16.30;99.90;;;;;;5107082;28;20123;-64
2022/09/11 07:46:08;;;;;;;14.25;12.15;;;16.50;99.90;;;;;;5126044;27;20432;-62
2022/09/11 07:48:34;;;;;;;12.82;10.77;;;16.70;99.90;;;;;;5129513;27;20168;-66
2022/09/11 07:51:03;;;;;;;12.98;11.77;;;16.80;99.90;;;;;;5119007;27;20048;-64
2022/09/11 07:53:33;;;;;;;12.77;11.63;;;17.00;99.90;;;;;;5102997;28;20055;-64
2022/09/11 07:56:22;;;;;;;14.02;11.32;;;17.20;99.90;;;;;;5128516;28;20043;-64
2022/09/11 07:58:48;;;;;;;12.48;11.32;;;17.30;99.90;;;;;;5133354;27;20412;-64
2022/09/11 08:01:17;;;;;;;13.75;11.88;;;17.50;99.90;;;;;;5127266;27;20114;-65
2022/09/11 08:03:43;;;;;;;12.50;11.25;;;17.60;99.90;;;;;;5121568;27;20039;-65
2022/09/11 08:06:12;;;;;;;12.52;11.23;;;17.80;99.90;;;;;;5131169;27;20489;-65
2022/09/11 08:08:39;;;;;;;11.45;10.05;;;17.90;99.90;;;;;;5133614;27;20039;-65
2022/09/11 08:11:07;;;;;;;12.05;9.63;;;18.00;99.90;;;;;;5132941;27;20417;-63
2022/09/11 08:13:34;;;;;;;12.18;9.70;;;18.20;99.90;;;;;;5113029;28;20465;-66
2022/09/11 08:16:00;;;;;;;10.50;9.40;;;18.40;99.90;;;;;;5118663;27;20123;-65
2022/09/11 08:18:26;;;;;;;8.95;8.07;;;18.50;99.90;;;;;;5132824;27;20118;-64
2022/09/11 08:20:53;;;;;;;7.97;7.18;;;18.60;99.90;;;;;;5132939;27;20126;-65
2022/09/11 08:23:20;;;;;;;9.95;6.80;;;18.80;99.90;;;;;;5134306;27;20039;-63
2022/09/11 08:25:46;;;;;;;10.95;7.57;;;18.90;99.90;;;;;;5123600;27;20043;-65
2022/09/11 08:28:12;;;;;;;8.45;7.43;;;19.00;99.90;;;;;;5113805;28;20047;-65
2022/09/11 08:30:38;;;;;;;8.73;6.25;;;19.00;99.90;;;;;;5113724;28;20050;-63
2022/09/11 08:33:05;;;;;;;7.82;6.70;;;19.20;99.90;;;;;;5113451;28;20028;-65
2022/09/11 08:35:32;;;;;;;7.80;5.65;;;19.40;99.90;;;;;;5132526;27;20054;-65
2022/09/11 08:37:59;;;;;;;6.93;5.50;;;19.30;99.90;;;;;;5115623;27;20386;-64
2022/09/11 08:40:27;;;;;;;6.53;4.95;;;19.40;99.90;;;;;;5113376;28;20027;-66
2022/09/11 08:42:56;;;;;;;9.25;5.57;;;19.30;99.90;;;;;;5130728;27;20039;-64
2022/09/11 08:45:24;;;;;;;6.03;4.68;;;19.40;99.90;;;;;;5114985;27;20047;-63
2022/09/11 08:47:54;;;;;;;8.32;4.85;;;19.40;99.90;;;;;;5122292;27;20499;-65
2022/09/11 08:50:35;;;;;;;10.18;4.60;;;19.30;99.90;;;;;;5116904;27;20529;-64
2022/09/11 08:53:02;;;;;;;4.82;4.13;;;19.30;99.90;;;;;;5113030;27;20114;-65
2022/09/11 08:55:42;;;;;;;8.85;4.80;;;19.30;99.90;;;;;;5131603;27;20031;-64
2022/09/11 08:58:25;;;;;;;5.15;3.80;;;19.10;99.90;;;;;;5125691;27;20059;-65
2022/09/11 09:01:11;;;;;;;6.32;4.38;;;19.00;99.90;;;;;;5130537;27;20042;-65
2022/09/11 09:04:01;;;;;;;5.00;3.90;;;18.90;99.90;;;;;;5132499;27;20031;-63
2022/09/11 09:06:29;;;;;;;6.10;3.45;;;18.90;99.90;;;;;;5132043;27;20084;-65
2022/09/11 09:08:55;;;;;;;6.03;4.18;;;18.90;99.90;;;;;;5123784;27;20474;-66
2022/09/11 09:11:35;;;;;;;8.18;4.43;;;19.10;99.90;;;;;;5117135;27;20051;-64
2022/09/11 09:14:15;;;;;;;5.05;3.50;;;19.40;99.90;;;;;;5130988;27;20495;-66
2022/09/11 09:16:53;;;;;;;6.00;3.60;;;19.70;99.90;;;;;;5132641;27;20099;-65
2022/09/11 09:19:53;;;;;;;4.78;3.10;;;19.70;99.90;;;;;;5127488;27;20117;-64
2022/09/11 09:22:25;;;;;;;3.97;2.70;;;19.60;99.90;;;;;;5110238;28;20048;-66
2022/09/11 09:24:59;;;;;;;4.53;2.70;;;19.50;99.90;;;;;;5112072;28;20043;-63
2022/09/11 09:27:38;;;;;;;3.70;2.20;;;19.40;99.90;;;;;;5111151;28;20035;-64
2022/09/11 09:30:12;;;;;;;6.50;2.65;;;19.40;99.90;;;;;;5112264;28;20410;-65
2022/09/11 09:33:00;;;;;;;4.47;2.30;;;19.70;99.90;;;;;;5092021;28;20056;-64
2022/09/11 09:35:38;;;;;;;5.55;2.50;;;20.30;99.90;;;;;;5111026;28;20118;-64
2022/09/11 09:38:12;;;;;;;5.30;2.88;;;20.80;99.90;;;;;;5129895;27;20047;-64
2022/09/11 09:40:47;;;;;;;6.15;2.67;;;21.20;99.90;;;;;;5128335;27;20047;-65
2022/09/11 09:43:42;;;;;;;5.82;2.75;;;21.60;99.90;;;;;;5121298;27;20051;-66
2022/09/11 09:46:39;;;;;;;3.25;2.20;;;22.00;99.90;;;;;;5109532;28;20494;-65
2022/09/11 09:49:04;;;;;;;3.42;1.85;;;22.20;99.90;;;;;;5129290;27;20051;-64
2022/09/11 09:51:30;;;;;;;5.10;2.30;;;22.10;99.90;;;;;;5126856;27;20053;-65
2022/09/11 09:54:00;;;;;;;3.45;1.95;;;22.20;99.90;;;;;;5118038;27;20051;-64
2022/09/11 09:56:29;;;;;;;3.25;2.00;;;22.30;99.90;;;;;;5110837;28;20508;-66
2022/09/11 09:59:25;;;;;;;4.60;2.47;;;22.50;99.90;;;;;;5110375;27;20054;-64
2022/09/11 10:01:52;;;;;;;4.15;2.47;;;22.50;99.90;;;;;;5127012;27;20047;-63
2022/09/11 10:04:26;;;;;;;6.57;3.92;;;22.20;99.90;;;;;;5112459;28;20078;-64
2022/09/11 10:07:09;;;;;;;5.90;2.40;;;21.90;99.90;;;;;;5112578;28;20046;-64
2022/09/11 10:09:35;;;;;;;3.47;2.22;;;21.50;99.90;;;;;;5110525;27;20115;-64
2022/09/11 10:12:09;;;;;;;3.80;2.10;;;21.10;99.90;;;;;;5127545;27;20103;-66
2022/09/11 10:15:05;;;;;;;3.33;1.95;;;20.90;99.90;;;;;;5110156;28;20043;-65
2022/09/11 10:17:34;;;;;;;2.22;1.25;;;20.70;99.90;;;;;;5028597;28;20531;-64
2022/09/11 10:20:17;;;;;;;3.75;1.30;;;20.50;99.90;;;;;;5028886;28;20084;-66
2022/09/11 10:22:44;;;;;;;3.40;1.20;;;20.40;99.90;;;;;;5028753;28;20137;-64
2022/09/11 10:25:18;;;;;;;2.63;1.50;;;20.40;99.90;;;;;;5012144;28;20052;-65
2022/09/11 10:27:44;;;;;;;2.08;1.40;;;20.20;99.90;;;;;;5012355;28;20504;-64
2022/09/11 10:30:25;;;;;;;3.65;1.55;;;20.10;99.90;;;;;;5012730;28;20051;-64
2022/09/11 10:32:50;;;;;;;3.15;1.73;;;20.10;99.90;;;;;;5012082;28;20045;-66
2022/09/11 10:35:17;;;;;;;2.55;1.20;;;20.70;99.90;;;;;;5012020;28;20052;-66
2022/09/11 10:37:43;;;;;;;4.18;1.60;;;21.40;99.90;;;;;;5011586;28;20101;-64
2022/09/11 10:40:21;;;;;;;4.63;1.50;;;22.10;99.90;;;;;;5028362;28;20103;-64
2022/09/11 10:42:49;;;;;;;1.65;1.10;;;22.90;99.90;;;;;;4995285;28;20045;-63
2022/09/11 10:45:17;;;;;;;1.98;1.27;;;23.00;99.90;;;;;;5011668;28;20045;-66
2022/09/11 10:47:47;;;;;;;3.35;1.60;;;23.60;99.90;;;;;;5011908;28;20072;-66
2022/09/11 10:50:16;;;;;;;3.70;1.42;;;23.70;99.90;;;;;;5012553;28;20049;-65
2022/09/11 10:52:56;;;;;;;2.63;1.30;;;24.20;99.90;;;;;;5012265;28;20044;-66
2022/09/11 10:55:25;;;;;;;2.75;1.23;;;24.60;99.90;;;;;;5123390;27;20157;-66
2022/09/11 10:57:53;;;;;;;3.85;1.58;;;24.90;99.90;;;;;;5107285;28;20039;-65
2022/09/11 11:00:26;;;;;;;3.65;1.85;;;25.00;99.90;;;;;;5109913;28;20521;-65
2022/09/11 11:02:56;;;;;;;2.78;1.30;;;25.20;99.90;;;;;;5128086;27;20481;-64
2022/09/11 11:05:35;;;;;;;2.97;1.58;;;25.30;99.90;;;;;;5113478;27;20031;-64
2022/09/11 11:08:10;;;;;;;2.63;1.10;;;25.40;99.90;;;;;;5110208;28;20043;-64
2022/09/11 11:11:05;;;;;;;5.07;1.25;;;24.90;98.30;;;;;;5119568;27;20071;-63
2022/09/11 11:14:04;;;;;;;6.00;2.00;;;24.30;99.20;;;;;;5111234;28;20035;-66
2022/09/11 11:17:02;;;;;;;2.78;1.80;;;23.80;99.70;;;;;;5125036;27;20039;-64
2022/09/11 11:19:34;;;;;;;3.63;1.40;;;23.40;99.40;;;;;;5115746;27;20413;-65
2022/09/11 11:22:11;;;;;;;3.47;1.30;;;23.30;99.90;;;;;;5127471;27;20666;-66
2022/09/11 11:24:48;;;;;;;2.50;1.40;;;23.40;99.90;;;;;;5129950;27;20039;-65
2022/09/11 11:27:33;;;;;;;1.92;1.27;;;23.60;99.90;;;;;;5127225;27;20027;-65
2022/09/11 11:30:07;;;;;;;1.60;1.08;;;23.60;99.90;;;;;;5110031;27;20445;-64
2022/09/11 11:32:42;;;;;;;2.83;1.30;;;23.30;99.90;;;;;;5127693;27;20039;-66
2022/09/11 11:35:25;;;;;;;2.53;1.40;;;23.30;99.90;;;;;;5132079;27;20042;-64
2022/09/11 11:38:21;;;;;;;2.67;1.35;;;23.20;99.90;;;;;;5126077;27;20034;-66
2022/09/11 11:40:53;;;;;;;1.83;1.30;;;23.30;99.90;;;;;;5039104;28;20157;-64
2022/09/11 11:43:23;;;;;;;2.97;1.30;;;23.30;99.90;;;;;;5031452;28;20076;-64
2022/09/11 11:45:52;;;;;;;2.50;1.40;;;23.10;99.90;;;;;;5031092;28;20057;-65
2022/09/11 11:48:28;;;;;;;4.85;1.50;;;22.90;99.90;;;;;;5013174;28;20045;-65
2022/09/11 11:50:58;;;;;;;2.45;1.50;;;22.60;99.90;;;;;;5030242;28;20611;-63
2022/09/11 11:53:30;;;;;;;2.97;1.42;;;22.30;99.90;;;;;;5048055;28;20116;-64
2022/09/11 11:56:15;;;;;;;2.80;1.42;;;22.30;99.90;;;;;;5031554;28;20045;-66
2022/09/11 11:58:53;;;;;;;3.67;1.50;;;22.50;99.90;;;;;;5031313;28;20199;-63
2022/09/11 12:01:42;;;;;;;3.75;1.45;;;22.50;99.90;;;;;;5027986;28;20044;-64
2022/09/11 12:04:26;;;;;;;4.10;1.40;;;22.70;99.90;;;;;;5029058;28;20120;-63
2022/09/11 12:06:52;;;;;;;2.33;1.20;;;22.90;99.90;;;;;;5030967;28;20037;-64
2022/09/11 12:09:18;;;;;;;1.27;0.95;;;22.90;99.40;;;;;;5047836;28;20132;-66
2022/09/11 12:11:51;;;;;;;2.40;1.30;;;23.00;99.90;;;;;;5046643;28;20531;-65
2022/09/11 12:14:28;;;;;;;2.55;1.27;;;23.10;99.30;;;;;;5047708;28;20128;-65
2022/09/11 12:16:55;;;;;;;2.78;1.15;;;22.80;98.00;;;;;;5066603;28;20040;-64
2022/09/11 12:19:24;;;;;;;2.40;1.10;;;22.90;99.40;;;;;;5129763;28;20050;-63
2022/09/11 12:21:52;;;;;;;3.28;1.25;;;22.70;99.10;;;;;;5114032;28;20044;-66
2022/09/11 12:24:21;;;;;;;2.42;1.10;;;22.70;98.90;;;;;;5128402;28;20039;-65
2022/09/11 12:27:07;;;;;;;1.95;1.10;;;22.70;98.20;;;;;;5129821;28;20031;-63
2022/09/11 12:29:53;;;;;;;1.58;0.88;;;22.60;98.30;;;;;;5129908;28;20062;-64
2022/09/11 12:32:24;;;;;;;2.20;1.10;;;22.60;98.30;;;;;;5115659;28;20071;-64
2022/09/11 12:34:55;;;;;;;3.28;1.23;;;22.60;98.00;;;;;;5117691;28;20040;-63
2022/09/11 12:37:40;;;;;;;3.10;0.90;;;22.60;97.90;;;;;;5109180;28;20115;-65
2022/09/11 12:40:32;;;;;;;3.55;0.88;;;22.70;98.10;;;;;;5128938;27;20051;-63
2022/09/11 12:43:17;;;;;;;2.15;0.85;;;22.60;98.20;;;;;;5112496;27;20047;-65
2022/09/11 12:45:46;;;;;;;2.75;0.90;;;22.70;96.90;;;;;;5122116;27;20070;-65
2022/09/11 12:48:19;;;;;;;1.60;0.85;;;22.70;97.90;;;;;;5096595;28;20375;-64
2022/09/11 12:50:51;;;;;;;1.50;0.95;;;22.90;97.90;;;;;;5130747;27;20393;-65
2022/09/11 12:53:41;;;;;;;2.40;1.20;;;23.00;97.90;;;;;;5133327;27;20464;-64
2022/09/11 12:56:15;;;;;;;1.27;1.00;;;22.90;98.40;;;;;;5124932;27;20148;-66
2022/09/11 12:58:45;;;;;;;2.85;1.40;;;22.70;98.60;;;;;;5114399;28;20073;-65
2022/09/11 13:01:12;;;;;;;4.20;1.30;;;22.50;99.10;;;;;;5132872;27;20091;-65